createdAt,value
2023-03-12T00:01:20.341Z,100289.25
2023-03-12T00:03:48.407Z,100286.00
2023-03-12T00:06:15.392Z,100281.28
2023-03-12T00:08:42.889Z,100279.44
2023-03-12T00:11:11.196Z,100286.59
2023-03-12T00:13:38.119Z,100283.94
2023-03-12T00:16:10.079Z,100283.94
2023-03-12T00:18:37.127Z,100284.56
2023-03-12T00:21:04.175Z,100289.66
2023-03-12T00:23:30.774Z,100294.25
2023-03-12T00:26:05.933Z,100291.84
2023-03-12T00:28:33.086Z,100286.66
2023-03-12T00:30:59.496Z,100285.41
2023-03-12T00:33:27.123Z,100284.25
2023-03-12T00:35:54.309Z,100289.34
2023-03-12T00:38:21.021Z,100282.38
2023-03-12T00:40:47.576Z,100283.88
2023-03-12T00:43:14.417Z,100274.34
2023-03-12T00:45:40.739Z,100276.41
2023-03-12T00:48:07.060Z,100275.75
2023-03-12T00:50:34.233Z,100272.31
2023-03-12T00:53:00.577Z,100267.22
2023-03-12T00:55:26.932Z,100271.28
2023-03-12T00:57:53.249Z,100269.66
2023-03-12T01:00:19.781Z,100265.34
2023-03-12T01:02:46.084Z,100262.91
2023-03-12T01:05:13.429Z,100267.53
2023-03-12T01:07:40.034Z,100264.25
2023-03-12T01:10:07.651Z,100262.22
2023-03-12T01:12:34.104Z,100263.03
2023-03-12T01:15:01.393Z,100266.31
2023-03-12T01:17:27.715Z,100260.38
2023-03-12T01:19:54.000Z,100262.63
2023-03-12T01:22:20.316Z,100253.25
2023-03-12T01:24:46.605Z,100252.00
2023-03-12T01:27:12.969Z,100254.66
2023-03-12T01:29:39.285Z,100248.31
2023-03-12T01:32:06.094Z,100248.94
2023-03-12T01:34:32.392Z,100245.44
2023-03-12T01:36:58.984Z,100240.97
2023-03-12T01:39:25.282Z,100244.63
2023-03-12T01:41:51.750Z,100245.28
2023-03-12T01:44:18.167Z,100238.13
2023-03-12T01:46:45.129Z,100237.69
2023-03-12T01:49:16.976Z,100240.78
2023-03-12T01:51:52.302Z,100241.38
2023-03-12T01:54:23.430Z,100242.63
2023-03-12T01:56:50.616Z,100236.22
2023-03-12T01:59:24.729Z,100230.34
2023-03-12T02:01:51.300Z,100225.84
2023-03-12T02:04:24.049Z,100228.34
2023-03-12T02:07:02.902Z,100225.47
2023-03-12T02:09:34.538Z,100217.31
2023-03-12T02:12:01.092Z,100213.84
2023-03-12T02:14:27.607Z,100219.97
2023-03-12T02:16:55.395Z,100212.25
2023-03-12T02:19:47.561Z,100216.31
2023-03-12T02:22:15.454Z,100221.63
2023-03-12T02:24:52.522Z,100218.97
2023-03-12T02:27:21.104Z,100214.72
2023-03-12T02:29:47.550Z,100214.94
2023-03-12T02:32:26.028Z,100218.22
2023-03-12T02:34:52.381Z,100211.06
2023-03-12T02:37:19.682Z,100216.19
2023-03-12T02:39:59.999Z,100205.72
2023-03-12T02:42:26.635Z,100209.59
2023-03-12T02:44:53.849Z,100203.03
2023-03-12T02:47:20.184Z,100198.53
2023-03-12T02:49:46.474Z,100200.56
2023-03-12T02:52:12.834Z,100194.06
2023-03-12T02:54:39.147Z,100206.31
2023-03-12T02:57:05.462Z,100195.31
2023-03-12T02:59:31.794Z,100200.19
2023-03-12T03:01:59.656Z,100196.34
2023-03-12T03:04:28.673Z,100195.34
2023-03-12T03:06:55.294Z,100196.38
2023-03-12T03:09:21.888Z,100203.91
2023-03-12T03:11:49.384Z,100195.75
2023-03-12T03:14:15.828Z,100197.34
2023-03-12T03:16:42.159Z,100185.44
2023-03-12T03:19:08.515Z,100185.44
2023-03-12T03:21:34.840Z,100189.94
2023-03-12T03:24:01.221Z,100188.72
2023-03-12T03:26:27.657Z,100185.00
2023-03-12T03:28:54.066Z,100178.41
2023-03-12T03:31:21.001Z,100187.72
2023-03-12T03:33:48.196Z,100181.22
2023-03-12T03:36:15.099Z,100181.38
2023-03-12T03:38:42.405Z,100183.34
2023-03-12T03:41:08.726Z,100184.81
2023-03-12T03:43:35.018Z,100184.00
2023-03-12T03:46:05.742Z,100174.94
2023-03-12T03:48:32.880Z,100177.38
2023-03-12T03:51:04.587Z,100173.22
2023-03-12T03:53:31.417Z,100177.16
2023-03-12T03:55:57.887Z,100176.56
2023-03-12T03:58:24.494Z,100170.66
2023-03-12T04:00:50.873Z,100170.03
2023-03-12T04:03:17.393Z,100173.53
2023-03-12T04:05:43.759Z,100170.00
2023-03-12T04:08:10.200Z,100165.06
2023-03-12T04:10:37.153Z,100157.00
2023-03-12T04:13:03.523Z,100158.06
2023-03-12T04:15:29.838Z,100160.72
2023-03-12T04:17:56.227Z,100160.47
2023-03-12T04:20:22.576Z,100159.28
2023-03-12T04:22:48.930Z,100155.34
2023-03-12T04:25:15.242Z,100145.84
2023-03-12T04:27:41.547Z,100147.06
2023-03-12T04:30:08.717Z,100142.81
2023-03-12T04:32:35.110Z,100138.50
2023-03-12T04:35:01.456Z,100129.75
2023-03-12T04:37:27.773Z,100139.63
2023-03-12T04:39:54.077Z,100142.28
2023-03-12T04:42:20.387Z,100131.66
2023-03-12T04:44:46.713Z,100130.19
2023-03-12T04:47:13.048Z,100125.91
2023-03-12T04:49:39.365Z,100122.38
2023-03-12T04:52:06.092Z,100118.41
2023-03-12T04:54:32.501Z,100124.03
2023-03-12T04:56:58.834Z,100123.00
2023-03-12T04:59:25.187Z,100116.66
2023-03-12T05:01:51.538Z,100121.31
2023-03-12T05:04:17.856Z,100118.28
2023-03-12T05:06:44.169Z,100118.56
2023-03-12T05:09:10.467Z,100109.44
2023-03-12T05:11:39.199Z,100121.19
2023-03-12T05:14:06.069Z,100118.44
2023-03-12T05:16:32.677Z,100116.38
2023-03-12T05:18:59.020Z,100112.69
2023-03-12T05:21:25.381Z,100105.31
2023-03-12T05:23:51.784Z,100104.09
2023-03-12T05:26:19.861Z,100097.16
2023-03-12T05:28:46.674Z,100099.97
2023-03-12T05:31:14.289Z,100092.56
2023-03-12T05:33:41.297Z,100090.06
2023-03-12T05:36:08.628Z,100090.06
2023-03-12T05:38:35.195Z,100081.50
2023-03-12T05:41:01.706Z,100076.31
2023-03-12T05:43:28.478Z,100081.44
2023-03-12T05:45:59.436Z,100075.06
2023-03-12T05:48:26.258Z,100076.63
2023-03-12T05:50:52.565Z,100070.69
2023-03-12T05:53:18.917Z,100063.31
2023-03-12T05:55:45.219Z,100064.94
2023-03-12T05:58:11.602Z,100049.31
2023-03-12T06:00:37.965Z,100053.31
2023-03-12T06:03:05.667Z,100046.72
2023-03-12T06:05:33.486Z,100047.75
2023-03-12T06:08:00.198Z,100049.16
2023-03-12T06:10:27.368Z,100041.25
2023-03-12T06:12:54.084Z,100045.09
2023-03-12T06:15:20.543Z,100052.31
2023-03-12T06:17:46.874Z,100045.88
2023-03-12T06:20:13.323Z,100044.25
2023-03-12T06:22:39.652Z,100023.34
2023-03-12T06:25:06.573Z,100023.91
2023-03-12T06:27:33.133Z,100025.44
2023-03-12T06:29:59.436Z,100015.72
2023-03-12T06:32:25.986Z,100009.59
2023-03-12T06:34:52.343Z,100017.56
2023-03-12T06:37:18.671Z,100007.13
2023-03-12T06:39:44.964Z,100012.94
2023-03-12T06:42:11.295Z,100004.84
2023-03-12T06:44:37.586Z,99997.66
2023-03-12T06:47:04.088Z,99991.81
2023-03-12T06:49:30.406Z,100009.34
2023-03-12T06:51:56.721Z,100006.41
2023-03-12T06:54:23.031Z,100002.09
2023-03-12T06:56:49.370Z,99997.09
2023-03-12T06:59:15.869Z,99988.84
2023-03-12T07:01:42.174Z,99987.22
2023-03-12T07:04:08.509Z,99989.72
2023-03-12T07:06:34.843Z,99995.53
2023-03-12T07:09:13.058Z,99996.31
2023-03-12T07:11:39.375Z,99998.28
2023-03-12T07:14:05.683Z,100004.56
2023-03-12T07:16:32.072Z,99999.72
2023-03-12T07:18:58.433Z,99999.59
2023-03-12T07:21:24.732Z,99994.22
2023-03-12T07:23:51.934Z,100000.03
2023-03-12T07:26:19.328Z,99994.25
2023-03-12T07:28:45.999Z,99987.41
2023-03-12T07:31:12.566Z,99991.59
2023-03-12T07:33:39.149Z,99996.44
2023-03-12T07:36:06.071Z,99996.53
2023-03-12T07:38:32.453Z,99986.66
2023-03-12T07:40:59.277Z,99985.63
2023-03-12T07:43:25.969Z,99980.53
2023-03-12T07:45:52.600Z,99979.94
2023-03-12T07:48:18.987Z,99983.03
2023-03-12T07:50:46.088Z,99977.03
2023-03-12T07:53:12.471Z,99984.47
2023-03-12T07:55:38.983Z,99978.34
2023-03-12T07:58:05.374Z,99962.31
2023-03-12T08:00:32.228Z,99965.78
2023-03-12T08:02:58.754Z,99955.34
2023-03-12T08:05:25.210Z,99953.81
2023-03-12T08:07:52.514Z,99958.09
2023-03-12T08:10:20.245Z,99958.19
2023-03-12T08:12:46.699Z,99950.88
2023-03-12T08:15:13.341Z,99946.56
2023-03-12T08:17:39.936Z,99940.84
2023-03-12T08:20:07.034Z,99938.63
2023-03-12T08:22:33.326Z,99928.72
2023-03-12T08:24:59.652Z,99922.97
2023-03-12T08:27:26.148Z,99925.25
2023-03-12T08:29:52.503Z,99934.16
2023-03-12T08:32:18.961Z,99935.41
2023-03-12T08:34:45.580Z,99932.06
2023-03-12T08:37:11.916Z,99948.03
2023-03-12T08:39:38.357Z,99941.25
2023-03-12T08:42:04.937Z,99939.19
2023-03-12T08:44:31.269Z,99931.25
2023-03-12T08:46:57.585Z,99928.91
2023-03-12T08:49:23.950Z,99931.72
2023-03-12T08:51:50.780Z,99939.94
2023-03-12T08:54:18.224Z,99944.25
2023-03-12T08:56:44.758Z,99943.78
2023-03-12T08:59:12.146Z,99954.34
2023-03-12T09:01:41.142Z,99946.94
2023-03-12T09:04:08.924Z,99941.88
2023-03-12T09:06:35.259Z,99946.50
2023-03-12T09:09:02.596Z,99938.63
2023-03-12T09:11:28.884Z,99943.34
2023-03-12T09:14:28.040Z,99931.97
2023-03-12T09:16:41.524Z,99924.47
2023-03-12T09:19:07.914Z,99916.25
2023-03-12T09:21:34.270Z,99922.75
2023-03-12T09:24:00.623Z,99921.28
2023-03-12T09:26:26.979Z,99925.31
2023-03-12T09:28:53.286Z,99925.59
2023-03-12T09:31:19.906Z,99923.31
2023-03-12T09:33:46.343Z,99921.06
2023-03-12T09:36:12.688Z,99918.22
2023-03-12T09:38:39.037Z,99915.47
2023-03-12T09:41:12.870Z,99918.19
2023-03-12T09:43:42.818Z,99921.94
2023-03-12T09:46:17.787Z,99915.31
2023-03-12T09:48:47.647Z,99908.13
2023-03-12T09:51:20.507Z,99912.78
2023-03-12T09:53:51.878Z,99899.19
2023-03-12T09:56:20.797Z,99889.34
2023-03-12T09:58:48.423Z,99896.22
2023-03-12T10:01:32.239Z,99888.94
2023-03-12T10:04:16.593Z,99891.09
2023-03-12T10:06:52.100Z,99882.44
2023-03-12T10:09:57.330Z,99883.53
2023-03-12T10:12:38.750Z,99865.84
2023-03-12T10:15:15.057Z,99874.72
2023-03-12T10:18:06.083Z,99861.66
2023-03-12T10:20:49.547Z,99853.75
2023-03-12T10:23:37.501Z,99852.16
2023-03-12T10:26:13.457Z,99854.00
2023-03-12T10:28:54.581Z,99853.44
2023-03-12T10:31:27.757Z,99857.88
2023-03-12T10:34:00.030Z,99852.91
2023-03-12T10:36:38.164Z,99855.50
2023-03-12T10:39:13.392Z,99850.38
2023-03-12T10:41:43.402Z,99849.44
2023-03-12T10:44:18.134Z,99853.72
2023-03-12T10:47:18.616Z,99857.25
2023-03-12T10:49:44.965Z,99853.44
2023-03-12T10:52:21.786Z,99847.78
2023-03-12T10:54:50.067Z,99842.84
2023-03-12T10:57:17.004Z,99839.06
2023-03-12T10:59:47.256Z,99844.94
2023-03-12T11:02:37.303Z,99847.72
2023-03-12T11:05:20.908Z,99847.84
2023-03-12T11:07:47.409Z,99854.50
2023-03-12T11:10:38.390Z,99853.88
2023-03-12T11:13:20.763Z,99846.53
2023-03-12T11:15:47.554Z,99836.63
2023-03-12T11:18:36.668Z,99836.72
2023-03-12T11:21:08.827Z,99814.19
2023-03-12T11:23:46.848Z,99807.94
2023-03-12T11:26:19.888Z,99809.88
2023-03-12T11:28:52.395Z,99808.59
2023-03-12T11:31:53.292Z,99805.16
2023-03-12T11:34:27.813Z,99812.41
2023-03-12T11:37:10.343Z,99807.03
2023-03-12T11:40:15.428Z,99813.91
2023-03-12T11:43:10.117Z,99802.59
2023-03-12T11:45:50.577Z,99811.00
2023-03-12T11:48:25.805Z,99809.13
2023-03-12T11:50:58.156Z,99802.91
2023-03-12T11:53:48.883Z,99801.94
2023-03-12T11:56:26.932Z,99798.72
2023-03-12T11:59:33.089Z,99789.63
2023-03-12T12:02:31.040Z,99793.34
2023-03-12T12:05:22.412Z,99787.47
2023-03-12T12:08:32.763Z,99770.97
2023-03-12T12:11:22.880Z,99757.56
2023-03-12T12:13:55.626Z,99753.56
2023-03-12T12:16:51.158Z,99753.34
2023-03-12T12:19:27.414Z,99758.78
2023-03-12T12:22:01.459Z,99749.44
2023-03-12T12:24:58.997Z,99755.28
2023-03-12T12:27:49.114Z,99757.22
2023-03-12T12:30:23.273Z,99746.00
2023-03-12T12:33:15.743Z,99745.94
2023-03-12T12:35:43.562Z,99743.25
2023-03-12T12:38:28.922Z,99752.34
2023-03-12T12:41:03.571Z,99746.22
2023-03-12T12:43:33.843Z,99740.31
2023-03-12T12:46:04.196Z,99737.13
2023-03-12T12:48:36.438Z,99738.75
2023-03-12T12:51:07.554Z,99736.88
2023-03-12T12:53:52.304Z,99737.16
2023-03-12T12:56:52.863Z,99737.44
2023-03-12T12:59:38.173Z,99728.84
2023-03-12T13:02:15.186Z,99722.41
2023-03-12T13:04:42.657Z,99720.78
2023-03-12T13:07:11.690Z,99714.88
2023-03-12T13:09:49.906Z,99704.69
2023-03-12T13:12:29.671Z,99706.56
2023-03-12T13:14:58.133Z,99715.41
2023-03-12T13:17:53.333Z,99709.75
2023-03-12T13:20:21.244Z,99705.16
2023-03-12T13:23:11.890Z,99709.47
2023-03-12T13:26:00.136Z,99716.75
2023-03-12T13:28:26.413Z,99713.75
2023-03-12T13:30:53.928Z,99713.47
2023-03-12T13:33:38.862Z,99713.69
2023-03-12T13:36:17.232Z,99705.63
2023-03-12T13:38:58.669Z,99705.09
2023-03-12T13:41:41.684Z,99704.53
2023-03-12T13:44:23.026Z,99703.41
2023-03-12T13:47:11.050Z,99697.47
2023-03-12T13:49:56.284Z,99695.97
2023-03-12T13:52:24.873Z,99697.84
2023-03-12T13:55:00.995Z,99705.38
2023-03-12T13:57:38.979Z,99701.03
2023-03-12T14:00:15.182Z,99693.44
2023-03-12T14:03:04.781Z,99687.47
2023-03-12T14:05:42.880Z,99683.66
2023-03-12T14:08:27.537Z,99674.22
2023-03-12T14:11:03.102Z,99672.50
2023-03-12T14:13:39.568Z,99665.63
2023-03-12T14:16:17.465Z,99668.66
2023-03-12T14:18:45.167Z,99676.38
2023-03-12T14:21:15.846Z,99686.06
2023-03-12T14:23:54.039Z,99690.84
2023-03-12T14:26:24.803Z,99699.50
2023-03-12T14:28:58.649Z,99703.88
2023-03-12T14:31:25.824Z,99705.22
2023-03-12T14:34:01.716Z,99705.31
2023-03-12T14:36:37.219Z,99703.75
2023-03-12T14:39:32.161Z,99702.19
2023-03-12T14:42:00.617Z,99707.31
2023-03-12T14:44:29.272Z,99705.38
2023-03-12T14:46:59.489Z,99721.06
2023-03-12T14:49:26.282Z,99704.56
2023-03-12T14:51:53.500Z,99705.63
2023-03-12T14:54:22.813Z,99706.97
2023-03-12T14:56:49.913Z,99705.31
2023-03-12T14:59:31.067Z,99702.44
2023-03-12T15:02:18.574Z,99693.47
2023-03-12T15:04:45.640Z,99689.53
2023-03-12T15:07:15.205Z,99696.81
2023-03-12T15:09:47.461Z,99686.09
2023-03-12T15:12:23.402Z,99694.03
2023-03-12T15:14:54.796Z,99691.09
2023-03-12T15:17:24.011Z,99686.41
2023-03-12T15:19:50.652Z,99679.81
2023-03-12T15:22:20.944Z,99684.00
2023-03-12T15:24:47.636Z,99674.81
2023-03-12T15:27:21.556Z,99663.25
2023-03-12T15:29:47.908Z,99667.06
2023-03-12T15:32:16.144Z,99670.72
2023-03-12T15:34:43.026Z,99660.94
2023-03-12T15:37:25.004Z,99666.66
2023-03-12T15:39:53.139Z,99662.00
2023-03-12T15:42:23.686Z,99660.19
2023-03-12T15:45:02.237Z,99664.00
2023-03-12T15:47:31.683Z,99674.16
2023-03-12T15:50:12.956Z,99674.94
2023-03-12T15:52:39.301Z,99669.31
2023-03-12T15:55:29.004Z,99673.84
2023-03-12T15:57:57.008Z,99670.88
2023-03-12T16:00:31.176Z,99675.88
2023-03-12T16:02:58.939Z,99674.28
2023-03-12T16:05:29.198Z,99675.47
2023-03-12T16:07:55.635Z,99672.75
2023-03-12T16:10:24.241Z,99664.09
2023-03-12T16:12:57.881Z,99665.69
2023-03-12T16:15:30.561Z,99661.06
2023-03-12T16:17:57.002Z,99667.13
2023-03-12T16:20:23.285Z,99662.91
2023-03-12T16:22:49.589Z,99658.31
2023-03-12T16:25:15.999Z,99660.81
2023-03-12T16:27:49.666Z,99667.00
2023-03-12T16:30:20.486Z,99667.66
2023-03-12T16:32:47.035Z,99669.81
2023-03-12T16:35:16.280Z,99666.84
2023-03-12T16:37:43.278Z,99666.63
2023-03-12T16:40:11.875Z,99669.19
2023-03-12T16:42:49.317Z,99673.03
2023-03-12T16:45:17.393Z,99686.28
2023-03-12T16:47:44.950Z,99684.97
2023-03-12T16:50:19.441Z,99684.47
2023-03-12T16:52:46.366Z,99696.22
2023-03-12T16:55:15.933Z,99686.00
2023-03-12T16:57:47.164Z,99679.03
2023-03-12T17:00:25.152Z,99692.50
2023-03-12T17:02:53.173Z,99690.66
2023-03-12T17:05:19.548Z,99691.53
2023-03-12T17:07:46.235Z,99683.91
2023-03-12T17:10:15.242Z,99704.09
2023-03-12T17:12:42.385Z,99700.31
2023-03-12T17:15:14.831Z,99706.50
2023-03-12T17:17:41.330Z,99698.41
2023-03-12T17:20:08.892Z,99706.50
2023-03-12T17:22:35.297Z,99699.50
2023-03-12T17:25:02.429Z,99700.66
2023-03-12T17:27:29.010Z,99685.78
2023-03-12T17:29:55.514Z,99700.50
2023-03-12T17:32:21.883Z,99709.66
2023-03-12T17:34:53.741Z,99698.34
2023-03-12T17:37:20.066Z,99697.03
2023-03-12T17:39:47.969Z,99703.16
2023-03-12T17:42:14.407Z,99706.16
2023-03-12T17:44:40.740Z,99704.84
2023-03-12T17:47:07.174Z,99708.56
2023-03-12T17:49:33.492Z,99710.00
2023-03-12T17:52:02.450Z,99707.38
2023-03-12T17:54:28.789Z,99701.34
2023-03-12T17:56:55.097Z,99711.56
2023-03-12T17:59:21.515Z,99712.00
2023-03-12T18:01:47.811Z,99725.06
2023-03-12T18:04:14.117Z,99721.41
2023-03-12T18:06:40.436Z,99737.38
2023-03-12T18:09:06.794Z,99744.38
2023-03-12T18:11:33.110Z,99742.03
2023-03-12T18:13:59.417Z,99748.50
2023-03-12T18:16:25.895Z,99748.22
2023-03-12T18:18:53.024Z,99755.28
2023-03-12T18:21:19.734Z,99751.94
2023-03-12T18:23:46.077Z,99742.78
2023-03-12T18:26:12.453Z,99741.50
2023-03-12T18:28:38.794Z,99741.66
2023-03-12T18:31:05.158Z,99743.56
2023-03-12T18:33:31.576Z,99741.84
2023-03-12T18:35:57.935Z,99735.72
2023-03-12T18:38:24.282Z,99748.19
2023-03-12T18:40:50.573Z,99739.94
2023-03-12T18:43:16.910Z,99740.00
2023-03-12T18:45:43.349Z,99736.16
2023-03-12T18:48:10.358Z,99736.44
2023-03-12T18:50:36.692Z,99740.00
2023-03-12T18:53:03.469Z,99743.50
2023-03-12T18:55:30.834Z,99738.56
2023-03-12T18:57:57.157Z,99735.06
2023-03-12T19:00:23.522Z,99739.41
2023-03-12T19:02:49.893Z,99741.47
2023-03-12T19:05:16.467Z,99742.78
2023-03-12T19:07:43.306Z,99746.06
2023-03-12T19:10:10.733Z,99744.63
2023-03-12T19:12:50.954Z,99748.13
2023-03-12T19:15:19.017Z,99743.09
2023-03-12T19:17:45.371Z,99742.00
2023-03-12T19:20:12.447Z,99726.03
2023-03-12T19:22:38.851Z,99729.91
2023-03-12T19:25:05.677Z,99715.00
2023-03-12T19:27:32.018Z,99713.53
2023-03-12T19:29:58.448Z,99706.94
2023-03-12T19:32:27.747Z,99704.91
2023-03-12T19:34:59.494Z,99697.72
2023-03-12T19:37:25.883Z,99704.97
2023-03-12T19:39:52.248Z,99704.25
2023-03-12T19:42:18.813Z,99707.75
2023-03-12T19:44:45.210Z,99712.72
2023-03-12T19:47:11.631Z,99707.75
2023-03-12T19:49:38.037Z,99708.84
2023-03-12T19:52:04.436Z,99705.03
2023-03-12T19:54:30.760Z,99699.81
2023-03-12T19:56:57.104Z,99704.13
2023-03-12T19:59:23.489Z,99705.00
2023-03-12T20:01:49.925Z,99697.41
2023-03-12T20:04:16.509Z,99710.75
2023-03-12T20:06:42.844Z,99719.97
2023-03-12T20:09:09.158Z,99703.97
2023-03-12T20:11:35.494Z,99712.00
2023-03-12T20:14:03.280Z,99713.09
2023-03-12T20:16:29.632Z,99714.44
2023-03-12T20:18:56.087Z,99720.84
2023-03-12T20:21:22.801Z,99713.97
2023-03-12T20:23:49.209Z,99717.25
2023-03-12T20:26:15.581Z,99713.00
2023-03-12T20:28:42.024Z,99711.28
2023-03-12T20:31:09.117Z,99705.63
2023-03-12T20:33:35.501Z,99715.06
2023-03-12T20:36:13.019Z,99704.50
2023-03-12T20:38:39.752Z,99703.66
2023-03-12T20:41:13.824Z,99706.09
2023-03-12T20:43:44.154Z,99707.09
2023-03-12T20:46:11.843Z,99708.75
2023-03-12T20:48:38.682Z,99703.13
2023-03-12T20:51:05.364Z,99689.16
2023-03-12T20:53:31.657Z,99687.78
2023-03-12T20:55:57.985Z,99680.47
2023-03-12T20:58:24.346Z,99685.78
2023-03-12T21:00:50.745Z,99686.78
2023-03-12T21:03:17.134Z,99687.19
2023-03-12T21:05:43.443Z,99682.75
2023-03-12T21:08:09.734Z,99688.44
2023-03-12T21:10:39.104Z,99678.88
2023-03-12T21:13:05.808Z,99677.56
2023-03-12T21:15:32.112Z,99673.94
2023-03-12T21:17:58.402Z,99677.16
2023-03-12T21:20:24.853Z,99679.38
2023-03-12T21:22:51.149Z,99670.25
2023-03-12T21:25:17.582Z,99663.38
2023-03-12T21:27:50.512Z,99658.25
2023-03-12T21:30:17.836Z,99663.75
2023-03-12T21:32:44.295Z,99651.06
2023-03-12T21:35:10.870Z,99660.47
2023-03-12T21:37:37.206Z,99658.66
2023-03-12T21:40:04.006Z,99659.75
2023-03-12T21:42:33.155Z,99657.97
2023-03-12T21:44:59.467Z,99653.44
2023-03-12T21:47:25.784Z,99645.75
2023-03-12T21:49:52.085Z,99647.16
2023-03-12T21:52:18.433Z,99643.69
2023-03-12T21:54:44.729Z,99649.38
2023-03-12T21:57:11.082Z,99644.84
2023-03-12T21:59:37.396Z,99639.75
2023-03-12T22:02:03.892Z,99638.66
2023-03-12T22:04:30.305Z,99629.44
2023-03-12T22:06:56.771Z,99639.38
2023-03-12T22:09:23.082Z,99624.38
2023-03-12T22:11:49.435Z,99620.97
2023-03-12T22:14:15.751Z,99618.38
2023-03-12T22:16:42.068Z,99610.94
2023-03-12T22:19:08.369Z,99617.94
2023-03-12T22:21:34.704Z,99612.63
2023-03-12T22:24:01.872Z,99609.84
2023-03-12T22:26:28.383Z,99596.72
2023-03-12T22:28:57.369Z,99597.13
2023-03-12T22:31:26.163Z,99600.31
2023-03-12T22:33:52.764Z,99597.72
2023-03-12T22:36:19.941Z,99587.13
2023-03-12T22:38:46.734Z,99586.13
2023-03-12T22:41:15.946Z,99578.19
2023-03-12T22:43:42.756Z,99575.91
2023-03-12T22:46:09.097Z,99575.31
2023-03-12T22:48:35.784Z,99570.31
2023-03-12T22:51:03.723Z,99572.91
2023-03-12T22:53:31.237Z,99566.69
2023-03-12T22:55:59.384Z,99564.78
2023-03-12T22:58:26.492Z,99558.88
2023-03-12T23:01:05.219Z,99557.91
2023-03-12T23:03:33.696Z,99552.97
2023-03-12T23:06:01.084Z,99552.16
2023-03-12T23:08:28.592Z,99550.25
2023-03-12T23:11:03.440Z,99551.06
2023-03-12T23:13:30.850Z,99532.75
2023-03-12T23:16:03.933Z,99531.88
2023-03-12T23:18:30.473Z,99537.66
2023-03-12T23:21:02.031Z,99535.56
2023-03-12T23:23:28.977Z,99528.34
2023-03-12T23:25:57.040Z,99526.25
2023-03-12T23:28:24.098Z,99521.47
2023-03-12T23:30:55.541Z,99508.41
2023-03-12T23:33:21.913Z,99507.44
2023-03-12T23:36:01.153Z,99497.66
2023-03-12T23:38:28.927Z,99496.81
2023-03-12T23:41:06.839Z,99501.16
2023-03-12T23:43:33.929Z,99490.00
2023-03-12T23:46:02.153Z,99494.81
2023-03-12T23:48:30.327Z,99482.41
2023-03-12T23:51:05.608Z,99482.31
2023-03-12T23:53:32.476Z,99475.19
2023-03-12T23:56:00.799Z,99462.78
2023-03-12T23:58:28.271Z,99457.38
